createdAt,value
2023-02-15T00:03:26.456Z,65.96
2023-02-15T00:08:29.691Z,65.68
2023-02-15T00:13:32.856Z,66.11
2023-02-15T00:18:36.027Z,65.93
2023-02-15T00:23:39.029Z,65.81
2023-02-15T00:28:42.110Z,66.47
2023-02-15T00:33:45.169Z,66.13
2023-02-15T00:38:48.170Z,65.95
2023-02-15T00:43:51.358Z,65.07
2023-02-15T00:48:55.219Z,65.04
2023-02-15T00:53:58.290Z,65.00
2023-02-15T00:59:01.368Z,65.23
2023-02-15T01:04:04.602Z,65.14
2023-02-15T01:09:07.691Z,64.80
2023-02-15T01:14:10.739Z,65.10
2023-02-15T01:19:15.737Z,64.69
2023-02-15T01:24:18.694Z,64.94
2023-02-15T01:29:23.099Z,64.84
2023-02-15T01:34:26.096Z,64.35
2023-02-15T01:39:29.204Z,64.98
2023-02-15T01:44:53.039Z,64.36
2023-02-15T01:50:06.746Z,64.27
2023-02-15T01:55:10.582Z,64.53
2023-02-15T02:00:15.137Z,64.52
2023-02-15T02:05:18.519Z,65.02
2023-02-15T02:10:24.497Z,64.83
2023-02-15T02:15:37.345Z,65.19
2023-02-15T02:21:03.996Z,65.17
2023-02-15T02:26:38.249Z,64.57
2023-02-15T02:31:45.590Z,65.11
2023-02-15T02:37:11.874Z,64.35
2023-02-15T02:42:23.777Z,64.25
2023-02-15T02:47:41.609Z,64.64
2023-02-15T02:52:50.092Z,64.00
2023-02-15T02:58:04.982Z,62.71
2023-02-15T03:03:13.821Z,61.85
2023-02-15T03:08:23.132Z,61.99
2023-02-15T03:13:29.737Z,62.01
2023-02-15T03:18:40.317Z,61.92
2023-02-15T03:23:43.517Z,61.32
2023-02-15T03:28:50.287Z,60.74
2023-02-15T03:34:03.146Z,62.40
2023-02-15T03:39:19.919Z,61.89
2023-02-15T03:44:31.369Z,62.07
2023-02-15T03:49:56.864Z,62.44
2023-02-15T03:55:00.451Z,62.09
2023-02-15T04:00:40.972Z,63.32
2023-02-15T04:05:45.783Z,62.83
2023-02-15T04:10:54.694Z,63.77
2023-02-15T04:16:07.961Z,63.43
2023-02-15T04:21:32.110Z,63.85
2023-02-15T04:26:37.270Z,63.71
2023-02-15T04:31:44.255Z,64.20
2023-02-15T04:36:51.491Z,64.51
2023-02-15T04:41:54.494Z,63.86
2023-02-15T04:46:57.510Z,64.22
2023-02-15T04:52:03.495Z,64.21
2023-02-15T04:57:07.545Z,63.87
2023-02-15T05:02:10.578Z,63.63
2023-02-15T05:07:13.644Z,63.16
2023-02-15T05:12:16.734Z,63.28
2023-02-15T05:17:19.779Z,62.98
2023-02-15T05:22:22.862Z,62.80
2023-02-15T05:27:44.544Z,62.38
2023-02-15T05:32:50.338Z,62.37
2023-02-15T05:37:53.566Z,61.97
2023-02-15T05:42:57.811Z,61.47
2023-02-15T05:48:00.912Z,60.92
2023-02-15T05:53:04.099Z,60.21
2023-02-15T05:58:07.668Z,58.85
2023-02-15T06:03:10.714Z,57.90
2023-02-15T06:08:13.743Z,57.23
2023-02-15T06:13:19.150Z,56.18
2023-02-15T06:18:23.846Z,56.12
2023-02-15T06:23:26.940Z,56.66
2023-02-15T06:28:30.145Z,55.49
2023-02-15T06:33:35.149Z,54.90
2023-02-15T06:38:38.231Z,54.00
2023-02-15T06:43:41.296Z,53.30
2023-02-15T06:48:44.327Z,53.08
2023-02-15T06:53:48.588Z,53.64
2023-02-15T06:58:51.846Z,52.73
2023-02-15T07:03:57.156Z,52.40
2023-02-15T07:09:00.561Z,52.59
2023-02-15T07:14:06.219Z,52.01
2023-02-15T07:19:09.400Z,52.43
2023-02-15T07:24:15.563Z,52.48
2023-02-15T07:29:19.245Z,52.05
2023-02-15T07:34:24.892Z,51.20
2023-02-15T07:39:28.202Z,52.36
2023-02-15T07:44:36.621Z,53.15
2023-02-15T07:49:39.749Z,53.67
2023-02-15T07:54:45.214Z,53.63
2023-02-15T07:59:49.704Z,54.53
2023-02-15T08:04:54.134Z,53.69
2023-02-15T08:09:57.227Z,53.50
2023-02-15T08:15:00.356Z,53.30
2023-02-15T08:20:04.010Z,53.15
2023-02-15T08:25:07.384Z,53.42
2023-02-15T08:30:11.066Z,53.84
2023-02-15T08:35:14.607Z,53.57
2023-02-15T08:40:18.076Z,53.86
2023-02-15T08:45:21.101Z,54.73
2023-02-15T08:50:24.450Z,54.26
2023-02-15T08:55:28.183Z,54.26
2023-02-15T09:00:32.558Z,54.05
2023-02-15T09:05:35.958Z,53.88
2023-02-15T09:10:39.122Z,53.11
2023-02-15T09:15:44.735Z,54.03
2023-02-15T09:20:51.375Z,53.43
2023-02-15T09:25:54.377Z,54.11
2023-02-15T09:30:58.269Z,53.37
2023-02-15T09:36:01.591Z,52.66
2023-02-15T09:41:07.624Z,53.14
2023-02-15T09:46:30.527Z,53.93
2023-02-15T09:52:13.981Z,53.17
2023-02-15T09:57:35.481Z,53.65
2023-02-15T10:02:55.588Z,53.05
2023-02-15T10:08:20.993Z,52.69
2023-02-15T10:13:37.603Z,53.64
2023-02-15T10:19:06.784Z,53.21
2023-02-15T10:24:29.902Z,52.77
2023-02-15T10:29:40.652Z,53.16
2023-02-15T10:34:58.499Z,53.04
2023-02-15T10:40:23.080Z,53.11
2023-02-15T10:45:49.541Z,52.74
2023-02-15T10:50:57.090Z,53.76
2023-02-15T10:56:23.148Z,53.04
2023-02-15T11:01:30.448Z,52.08
2023-02-15T11:06:36.366Z,53.23
2023-02-15T11:11:43.846Z,53.93
2023-02-15T11:16:52.153Z,52.91
2023-02-15T11:22:00.733Z,52.91
2023-02-15T11:27:14.317Z,53.05
2023-02-15T11:32:37.021Z,54.23
2023-02-15T11:37:57.888Z,53.29
2023-02-15T11:43:08.462Z,53.69
2023-02-15T11:48:14.093Z,53.82
2023-02-15T11:53:29.093Z,53.96
2023-02-15T11:58:39.292Z,53.48
2023-02-15T12:03:48.465Z,54.20
2023-02-15T12:09:23.831Z,54.56
2023-02-15T12:14:27.011Z,53.90
2023-02-15T12:19:37.865Z,54.25
2023-02-15T12:24:47.839Z,53.74
2023-02-15T12:29:53.209Z,53.47
2023-02-15T12:35:09.609Z,53.43
2023-02-15T12:40:34.829Z,53.21
2023-02-15T12:45:39.563Z,54.21
2023-02-15T12:50:45.395Z,54.32
2023-02-15T12:56:05.041Z,54.82
2023-02-15T13:01:13.977Z,54.97
2023-02-15T13:06:19.407Z,55.23
2023-02-15T13:11:31.311Z,55.46
2023-02-15T13:16:40.310Z,55.45
2023-02-15T13:21:51.088Z,55.69
2023-02-15T13:27:09.427Z,56.15
2023-02-15T13:32:29.233Z,56.24
2023-02-15T13:37:50.491Z,56.40
2023-02-15T13:43:19.159Z,57.28
2023-02-15T13:48:46.983Z,56.85
2023-02-15T13:54:03.580Z,57.15
2023-02-15T13:59:27.145Z,56.69
2023-02-15T14:04:33.014Z,57.05
2023-02-15T14:09:48.897Z,57.21
2023-02-15T14:15:21.769Z,57.70
2023-02-15T14:20:24.981Z,57.77
2023-02-15T14:25:40.623Z,57.55
2023-02-15T14:30:51.060Z,57.19
2023-02-15T14:35:55.460Z,58.13
2023-02-15T14:41:12.037Z,58.70
2023-02-15T14:46:33.148Z,58.37
2023-02-15T14:51:46.986Z,58.46
2023-02-15T14:57:02.150Z,57.93
2023-02-15T15:02:18.662Z,58.25
2023-02-15T15:07:44.881Z,58.79
2023-02-15T15:12:52.675Z,59.02
2023-02-15T15:18:24.611Z,59.17
2023-02-15T15:23:45.451Z,59.88
2023-02-15T15:28:48.516Z,60.13
2023-02-15T15:34:16.329Z,59.91
2023-02-15T15:39:42.318Z,60.48
2023-02-15T15:45:11.858Z,60.26
2023-02-15T15:50:21.069Z,60.59
2023-02-15T15:55:28.948Z,61.06
2023-02-15T16:00:47.988Z,60.37
2023-02-15T16:05:55.681Z,60.86
2023-02-15T16:11:00.304Z,60.56
2023-02-15T16:16:03.765Z,61.20
2023-02-15T16:21:07.117Z,61.09
2023-02-15T16:26:24.946Z,61.24
2023-02-15T16:31:28.243Z,61.87
2023-02-15T16:36:31.563Z,60.86
2023-02-15T16:41:36.037Z,61.82
2023-02-15T16:46:44.269Z,61.82
2023-02-15T16:51:57.772Z,61.82
2023-02-15T16:57:01.341Z,61.65
2023-02-15T17:02:20.381Z,62.34
2023-02-15T17:07:30.548Z,61.89
2023-02-15T17:12:56.434Z,62.35
2023-02-15T17:18:12.851Z,62.58
2023-02-15T17:23:33.906Z,62.07
2023-02-15T17:28:37.214Z,62.14
2023-02-15T17:33:43.112Z,62.04
2023-02-15T17:38:58.050Z,62.91
2023-02-15T17:44:03.216Z,62.93
2023-02-15T17:49:08.688Z,62.53
2023-02-15T17:54:30.433Z,62.69
2023-02-15T17:59:33.475Z,62.97
2023-02-15T18:04:56.211Z,63.23
2023-02-15T18:10:17.775Z,62.64
2023-02-15T18:15:20.966Z,62.61
2023-02-15T18:20:37.217Z,63.30
2023-02-15T18:25:40.694Z,62.92
2023-02-15T18:30:45.148Z,62.50
2023-02-15T18:35:50.657Z,62.89
2023-02-15T18:40:53.751Z,62.58
2023-02-15T18:45:59.645Z,63.23
2023-02-15T18:51:03.322Z,62.83
2023-02-15T18:56:06.903Z,63.84
2023-02-15T19:01:17.176Z,63.07
2023-02-15T19:06:23.578Z,62.82
2023-02-15T19:11:29.625Z,63.46
2023-02-15T19:16:35.378Z,62.53
2023-02-15T19:21:39.910Z,62.78
2023-02-15T19:26:46.020Z,63.16
2023-02-15T19:31:49.257Z,63.29
2023-02-15T19:36:54.591Z,63.81
2023-02-15T19:41:59.224Z,63.58
2023-02-15T19:47:02.447Z,62.57
2023-02-15T19:52:06.061Z,63.90
2023-02-15T19:57:12.218Z,63.39
2023-02-15T20:02:18.472Z,63.88
2023-02-15T20:07:28.939Z,63.81
2023-02-15T20:12:31.968Z,64.06
2023-02-15T20:17:35.205Z,64.10
2023-02-15T20:22:38.154Z,63.97
2023-02-15T20:27:44.201Z,63.66
2023-02-15T20:32:49.242Z,63.75
2023-02-15T20:37:54.808Z,63.42
2023-02-15T20:42:58.094Z,63.93
2023-02-15T20:48:02.198Z,63.22
2023-02-15T20:53:10.071Z,63.81
2023-02-15T20:58:20.380Z,64.05
2023-02-15T21:03:28.141Z,64.05
2023-02-15T21:08:31.115Z,64.46
2023-02-15T21:13:35.866Z,63.96
2023-02-15T21:18:40.998Z,64.79
2023-02-15T21:23:44.822Z,64.00
2023-02-15T21:28:48.642Z,64.11
2023-02-15T21:33:52.137Z,64.10
2023-02-15T21:38:55.395Z,63.91
2023-02-15T21:44:16.759Z,63.42
2023-02-15T21:49:19.909Z,63.87
2023-02-15T21:54:22.937Z,63.51
2023-02-15T21:59:27.624Z,63.72
2023-02-15T22:04:31.162Z,63.86
2023-02-15T22:09:35.806Z,63.44
2023-02-15T22:14:41.077Z,63.77
2023-02-15T22:19:45.966Z,63.59
2023-02-15T22:24:49.081Z,64.13
2023-02-15T22:29:52.807Z,63.96
2023-02-15T22:34:56.640Z,64.10
2023-02-15T22:39:59.738Z,64.58
2023-02-15T22:45:02.761Z,64.27
2023-02-15T22:50:16.216Z,64.15
2023-02-15T22:55:23.451Z,64.63
2023-02-15T23:00:29.382Z,64.42
2023-02-15T23:05:32.408Z,64.73
2023-02-15T23:10:35.445Z,64.50
2023-02-15T23:15:39.336Z,64.83
2023-02-15T23:20:42.537Z,65.08
2023-02-15T23:25:45.549Z,64.67
2023-02-15T23:30:49.226Z,64.07
2023-02-15T23:35:53.071Z,64.66
2023-02-15T23:41:18.061Z,64.99
2023-02-15T23:46:28.417Z,65.15
2023-02-15T23:51:32.238Z,64.95
2023-02-15T23:56:36.086Z,64.66
